Reno, Nevada
Current Conditions -  °F | °C
As of 4:55 PM on Friday 31 Oct 2014 (Local Time) from KRNO Reporting Station
Broken Clouds Broken Clouds  
Wind Chill: 66°   Ceiling: 14000
Heat Index: 66°   Visibility: 10mi
Dew Point: 29°   Wind: 12mph
Humidity: 25%   Direction: 240°WSW
Pressure: 29.68"   Gusts: NA
Location:  39.52°N, 119.81°W
Report Text: KRNO 312355Z 24010KT 10SM SCT070 SCT100 BKN140 19/M02 A2968 RMK AO2 SLP009 VIRGA ACSL DSNT S NW-N T01891017 10211 20167 56016
Loading
Personal Weather Stations






























Interactive Weather Map
Tropical Storm Tracking
New forecast layout! Learn more

10-Day Weather Forecast

Advertisements
Track Severe Weather on mobile